sensor_id;sensor_type;location;lat;lon;timestamp;P1;durP1;ratioP1;P2;durP2;ratioP2
17528;SDS011;8882;53.192;8.184;2023-09-07T00:02:19;2.65;;;2.42;;
17528;SDS011;8882;53.192;8.184;2023-09-07T00:04:45;2.88;;;2.67;;
17528;SDS011;8882;53.192;8.184;2023-09-07T00:07:10;3.07;;;2.53;;
17528;SDS011;8882;53.192;8.184;2023-09-07T00:09:36;3.13;;;2.30;;
17528;SDS011;8882;53.192;8.184;2023-09-07T00:12:01;2.90;;;2.40;;
17528;SDS011;8882;53.192;8.184;2023-09-07T00:14:27;2.75;;;2.55;;
17528;SDS011;8882;53.192;8.184;2023-09-07T00:16:52;3.15;;;2.55;;
17528;SDS011;8882;53.192;8.184;2023-09-07T00:19:18;2.63;;;2.42;;
17528;SDS011;8882;53.192;8.184;2023-09-07T00:21:43;2.83;;;2.63;;
17528;SDS011;8882;53.192;8.184;2023-09-07T00:24:09;3.47;;;2.77;;
17528;SDS011;8882;53.192;8.184;2023-09-07T00:26:35;4.45;;;2.47;;
17528;SDS011;8882;53.192;8.184;2023-09-07T00:29:00;3.00;;;2.70;;
17528;SDS011;8882;53.192;8.184;2023-09-07T00:31:26;3.57;;;2.90;;
17528;SDS011;8882;53.192;8.184;2023-09-07T00:33:51;3.10;;;2.80;;
17528;SDS011;8882;53.192;8.184;2023-09-07T00:36:17;3.27;;;2.70;;
17528;SDS011;8882;53.192;8.184;2023-09-07T00:38:43;4.60;;;2.90;;
17528;SDS011;8882;53.192;8.184;2023-09-07T00:41:09;2.97;;;2.67;;
17528;SDS011;8882;53.192;8.184;2023-09-07T00:43:34;3.23;;;2.93;;
17528;SDS011;8882;53.192;8.184;2023-09-07T00:46:00;4.40;;;2.90;;
17528;SDS011;8882;53.192;8.184;2023-09-07T00:48:25;2.53;;;2.33;;
17528;SDS011;8882;53.192;8.184;2023-09-07T00:50:51;4.07;;;3.00;;
17528;SDS011;8882;53.192;8.184;2023-09-07T00:53:17;4.13;;;3.08;;
17528;SDS011;8882;53.192;8.184;2023-09-07T00:55:43;2.53;;;2.33;;
17528;SDS011;8882;53.192;8.184;2023-09-07T00:58:09;3.83;;;2.63;;
17528;SDS011;8882;53.192;8.184;2023-09-07T01:00:37;3.73;;;2.83;;
17528;SDS011;8882;53.192;8.184;2023-09-07T01:03:02;4.70;;;2.90;;
17528;SDS011;8882;53.192;8.184;2023-09-07T01:05:34;2.80;;;2.60;;
17528;SDS011;8882;53.192;8.184;2023-09-07T01:08:19;3.23;;;2.90;;
17528;SDS011;8882;53.192;8.184;2023-09-07T01:10:50;4.00;;;3.03;;
17528;SDS011;8882;53.192;8.184;2023-09-07T01:13:15;2.93;;;2.70;;
17528;SDS011;8882;53.192;8.184;2023-09-07T01:15:41;3.63;;;3.17;;
17528;SDS011;8882;53.192;8.184;2023-09-07T01:18:06;3.93;;;2.90;;
17528;SDS011;8882;53.192;8.184;2023-09-07T01:20:34;4.00;;;2.77;;
17528;SDS011;8882;53.192;8.184;2023-09-07T01:23:01;4.77;;;2.80;;
17528;SDS011;8882;53.192;8.184;2023-09-07T01:25:28;4.07;;;2.90;;
17528;SDS011;8882;53.192;8.184;2023-09-07T01:27:53;3.40;;;2.83;;
17528;SDS011;8882;53.192;8.184;2023-09-07T01:30:19;3.30;;;2.87;;
17528;SDS011;8882;53.192;8.184;2023-09-07T01:32:46;4.03;;;2.97;;
17528;SDS011;8882;53.192;8.184;2023-09-07T01:35:11;3.57;;;3.27;;
17528;SDS011;8882;53.192;8.184;2023-09-07T01:37:39;3.20;;;2.90;;
17528;SDS011;8882;53.192;8.184;2023-09-07T01:40:05;3.67;;;3.20;;
17528;SDS011;8882;53.192;8.184;2023-09-07T01:42:32;4.53;;;2.83;;
17528;SDS011;8882;53.192;8.184;2023-09-07T01:44:58;5.77;;;3.73;;
17528;SDS011;8882;53.192;8.184;2023-09-07T01:47:24;3.20;;;2.90;;
17528;SDS011;8882;53.192;8.184;2023-09-07T01:49:49;3.87;;;3.07;;
17528;SDS011;8882;53.192;8.184;2023-09-07T01:52:14;3.50;;;3.20;;
17528;SDS011;8882;53.192;8.184;2023-09-07T01:54:40;4.40;;;3.10;;
17528;SDS011;8882;53.192;8.184;2023-09-07T01:57:05;3.93;;;3.00;;
17528;SDS011;8882;53.192;8.184;2023-09-07T01:59:31;5.93;;;3.07;;
17528;SDS011;8882;53.192;8.184;2023-09-07T02:01:57;4.17;;;3.40;;
17528;SDS011;8882;53.192;8.184;2023-09-07T02:04:22;4.50;;;3.10;;
17528;SDS011;8882;53.192;8.184;2023-09-07T02:06:47;4.23;;;3.73;;
17528;SDS011;8882;53.192;8.184;2023-09-07T02:09:13;3.60;;;3.30;;
17528;SDS011;8882;53.192;8.184;2023-09-07T02:11:38;3.90;;;3.50;;
17528;SDS011;8882;53.192;8.184;2023-09-07T02:14:05;5.27;;;3.33;;
17528;SDS011;8882;53.192;8.184;2023-09-07T02:16:31;3.83;;;3.47;;
17528;SDS011;8882;53.192;8.184;2023-09-07T02:19:03;4.20;;;3.80;;
17528;SDS011;8882;53.192;8.184;2023-09-07T02:21:29;4.20;;;3.50;;
17528;SDS011;8882;53.192;8.184;2023-09-07T02:23:55;4.07;;;3.30;;
17528;SDS011;8882;53.192;8.184;2023-09-07T02:26:20;3.83;;;3.43;;
17528;SDS011;8882;53.192;8.184;2023-09-07T02:28:46;4.33;;;3.73;;
17528;SDS011;8882;53.192;8.184;2023-09-07T02:31:11;5.63;;;3.80;;
17528;SDS011;8882;53.192;8.184;2023-09-07T02:33:37;3.43;;;3.13;;
17528;SDS011;8882;53.192;8.184;2023-09-07T02:36:02;4.93;;;3.93;;
17528;SDS011;8882;53.192;8.184;2023-09-07T02:38:28;4.60;;;3.50;;
17528;SDS011;8882;53.192;8.184;2023-09-07T02:40:55;5.60;;;3.73;;
17528;SDS011;8882;53.192;8.184;2023-09-07T02:43:21;4.70;;;3.47;;
17528;SDS011;8882;53.192;8.184;2023-09-07T02:45:48;4.20;;;3.47;;
17528;SDS011;8882;53.192;8.184;2023-09-07T02:48:14;4.40;;;4.00;;
17528;SDS011;8882;53.192;8.184;2023-09-07T02:50:40;5.93;;;3.87;;
17528;SDS011;8882;53.192;8.184;2023-09-07T02:53:05;4.40;;;4.00;;
17528;SDS011;8882;53.192;8.184;2023-09-07T02:55:31;4.50;;;4.10;;
17528;SDS011;8882;53.192;8.184;2023-09-07T02:57:57;6.93;;;4.17;;
17528;SDS011;8882;53.192;8.184;2023-09-07T03:00:22;4.57;;;4.00;;
17528;SDS011;8882;53.192;8.184;2023-09-07T03:02:48;4.90;;;4.23;;
17528;SDS011;8882;53.192;8.184;2023-09-07T03:05:15;5.90;;;4.20;;
17528;SDS011;8882;53.192;8.184;2023-09-07T03:07:41;5.37;;;4.17;;
17528;SDS011;8882;53.192;8.184;2023-09-07T03:10:06;4.83;;;4.23;;
17528;SDS011;8882;53.192;8.184;2023-09-07T03:12:33;6.63;;;4.50;;
17528;SDS011;8882;53.192;8.184;2023-09-07T03:14:59;4.53;;;4.13;;
17528;SDS011;8882;53.192;8.184;2023-09-07T03:17:28;6.70;;;4.33;;
17528;SDS011;8882;53.192;8.184;2023-09-07T03:19:54;4.37;;;3.97;;
17528;SDS011;8882;53.192;8.184;2023-09-07T03:22:19;6.37;;;4.50;;
17528;SDS011;8882;53.192;8.184;2023-09-07T03:24:45;10.30;;;4.93;;
17528;SDS011;8882;53.192;8.184;2023-09-07T03:27:10;5.80;;;4.73;;
17528;SDS011;8882;53.192;8.184;2023-09-07T03:29:36;5.77;;;4.73;;
17528;SDS011;8882;53.192;8.184;2023-09-07T03:32:02;5.83;;;4.27;;
17528;SDS011;8882;53.192;8.184;2023-09-07T03:34:27;8.30;;;4.50;;
17528;SDS011;8882;53.192;8.184;2023-09-07T03:36:53;8.47;;;4.90;;
17528;SDS011;8882;53.192;8.184;2023-09-07T03:39:18;7.30;;;4.90;;
17528;SDS011;8882;53.192;8.184;2023-09-07T03:41:46;5.07;;;4.53;;
17528;SDS011;8882;53.192;8.184;2023-09-07T03:44:12;6.03;;;5.30;;
17528;SDS011;8882;53.192;8.184;2023-09-07T03:46:37;5.70;;;4.53;;
17528;SDS011;8882;53.192;8.184;2023-09-07T03:49:03;5.77;;;5.07;;
17528;SDS011;8882;53.192;8.184;2023-09-07T03:51:28;8.43;;;4.83;;
17528;SDS011;8882;53.192;8.184;2023-09-07T03:53:54;5.23;;;4.70;;
17528;SDS011;8882;53.192;8.184;2023-09-07T03:56:19;6.07;;;4.43;;
17528;SDS011;8882;53.192;8.184;2023-09-07T03:58:45;6.20;;;4.90;;
17528;SDS011;8882;53.192;8.184;2023-09-07T04:01:12;6.63;;;5.30;;
17528;SDS011;8882;53.192;8.184;2023-09-07T04:03:38;5.87;;;4.77;;
17528;SDS011;8882;53.192;8.184;2023-09-07T04:06:05;5.70;;;4.80;;
17528;SDS011;8882;53.192;8.184;2023-09-07T04:08:30;6.33;;;4.80;;
17528;SDS011;8882;53.192;8.184;2023-09-07T04:10:56;5.10;;;4.50;;
17528;SDS011;8882;53.192;8.184;2023-09-07T04:13:22;6.87;;;4.87;;
17528;SDS011;8882;53.192;8.184;2023-09-07T04:15:47;5.83;;;5.27;;
17528;SDS011;8882;53.192;8.184;2023-09-07T04:18:14;5.57;;;4.60;;
17528;SDS011;8882;53.192;8.184;2023-09-07T04:20:43;5.73;;;5.10;;
17528;SDS011;8882;53.192;8.184;2023-09-07T04:23:08;6.23;;;4.80;;
17528;SDS011;8882;53.192;8.184;2023-09-07T04:25:34;10.43;;;5.30;;
17528;SDS011;8882;53.192;8.184;2023-09-07T04:28:00;8.90;;;5.83;;
17528;SDS011;8882;53.192;8.184;2023-09-07T04:30:25;6.43;;;5.70;;
17528;SDS011;8882;53.192;8.184;2023-09-07T04:32:51;6.43;;;5.83;;
17528;SDS011;8882;53.192;8.184;2023-09-07T04:35:17;6.37;;;5.33;;
17528;SDS011;8882;53.192;8.184;2023-09-07T04:37:43;12.80;;;6.30;;
17528;SDS011;8882;53.192;8.184;2023-09-07T04:40:09;8.30;;;5.87;;
17528;SDS011;8882;53.192;8.184;2023-09-07T04:42:35;7.77;;;5.17;;
17528;SDS011;8882;53.192;8.184;2023-09-07T04:45:03;6.47;;;5.73;;
17528;SDS011;8882;53.192;8.184;2023-09-07T04:47:29;7.47;;;6.40;;
17528;SDS011;8882;53.192;8.184;2023-09-07T04:49:55;8.03;;;5.47;;
17528;SDS011;8882;53.192;8.184;2023-09-07T04:52:20;9.33;;;5.67;;
17528;SDS011;8882;53.192;8.184;2023-09-07T04:54:47;7.97;;;5.53;;
17528;SDS011;8882;53.192;8.184;2023-09-07T04:57:13;8.73;;;6.10;;
17528;SDS011;8882;53.192;8.184;2023-09-07T04:59:41;8.50;;;6.00;;
17528;SDS011;8882;53.192;8.184;2023-09-07T05:02:06;9.20;;;6.37;;
17528;SDS011;8882;53.192;8.184;2023-09-07T05:04:32;7.97;;;6.47;;
17528;SDS011;8882;53.192;8.184;2023-09-07T05:06:57;7.50;;;6.17;;
17528;SDS011;8882;53.192;8.184;2023-09-07T05:09:23;16.73;;;6.60;;
17528;SDS011;8882;53.192;8.184;2023-09-07T05:11:50;11.30;;;6.57;;
17528;SDS011;8882;53.192;8.184;2023-09-07T05:14:15;11.03;;;6.30;;
17528;SDS011;8882;53.192;8.184;2023-09-07T05:16:44;10.93;;;6.33;;
17528;SDS011;8882;53.192;8.184;2023-09-07T05:19:09;7.83;;;6.83;;
17528;SDS011;8882;53.192;8.184;2023-09-07T05:21:35;10.10;;;6.53;;
17528;SDS011;8882;53.192;8.184;2023-09-07T05:24:00;9.53;;;5.83;;
17528;SDS011;8882;53.192;8.184;2023-09-07T05:26:26;8.67;;;6.17;;
17528;SDS011;8882;53.192;8.184;2023-09-07T05:28:51;6.83;;;6.00;;
17528;SDS011;8882;53.192;8.184;2023-09-07T05:31:17;9.27;;;5.87;;
17528;SDS011;8882;53.192;8.184;2023-09-07T05:33:43;7.37;;;6.00;;
17528;SDS011;8882;53.192;8.184;2023-09-07T05:36:08;10.53;;;6.20;;
17528;SDS011;8882;53.192;8.184;2023-09-07T05:38:34;8.77;;;5.83;;
17528;SDS011;8882;53.192;8.184;2023-09-07T05:40:59;9.30;;;6.27;;
17528;SDS011;8882;53.192;8.184;2023-09-07T05:43:25;7.77;;;6.00;;
17528;SDS011;8882;53.192;8.184;2023-09-07T05:45:51;8.57;;;5.77;;
17528;SDS011;8882;53.192;8.184;2023-09-07T05:48:16;7.40;;;6.00;;
17528;SDS011;8882;53.192;8.184;2023-09-07T05:50:42;9.03;;;6.10;;
17528;SDS011;8882;53.192;8.184;2023-09-07T05:53:08;8.53;;;5.70;;
17528;SDS011;8882;53.192;8.184;2023-09-07T05:55:34;7.23;;;5.63;;
17528;SDS011;8882;53.192;8.184;2023-09-07T05:57:59;7.97;;;5.60;;
17528;SDS011;8882;53.192;8.184;2023-09-07T06:00:29;8.70;;;5.60;;
17528;SDS011;8882;53.192;8.184;2023-09-07T06:02:54;6.97;;;5.67;;
17528;SDS011;8882;53.192;8.184;2023-09-07T06:05:20;6.37;;;5.50;;
17528;SDS011;8882;53.192;8.184;2023-09-07T06:07:46;6.80;;;5.77;;
17528;SDS011;8882;53.192;8.184;2023-09-07T06:10:11;9.07;;;5.80;;
17528;SDS011;8882;53.192;8.184;2023-09-07T06:12:37;8.50;;;5.90;;
17528;SDS011;8882;53.192;8.184;2023-09-07T06:15:03;7.50;;;6.17;;
17528;SDS011;8882;53.192;8.184;2023-09-07T06:17:29;6.97;;;5.53;;
17528;SDS011;8882;53.192;8.184;2023-09-07T06:19:55;8.77;;;5.70;;
17528;SDS011;8882;53.192;8.184;2023-09-07T06:22:20;9.43;;;6.00;;
17528;SDS011;8882;53.192;8.184;2023-09-07T06:24:46;9.00;;;5.87;;
17528;SDS011;8882;53.192;8.184;2023-09-07T06:27:12;8.37;;;5.80;;
17528;SDS011;8882;53.192;8.184;2023-09-07T06:29:37;7.53;;;5.50;;
17528;SDS011;8882;53.192;8.184;2023-09-07T06:32:03;7.50;;;5.63;;
17528;SDS011;8882;53.192;8.184;2023-09-07T06:34:29;10.27;;;5.80;;
17528;SDS011;8882;53.192;8.184;2023-09-07T06:36:54;7.10;;;5.03;;
17528;SDS011;8882;53.192;8.184;2023-09-07T06:39:20;8.47;;;5.87;;
17528;SDS011;8882;53.192;8.184;2023-09-07T06:41:45;9.93;;;5.53;;
17528;SDS011;8882;53.192;8.184;2023-09-07T06:44:12;10.77;;;5.60;;
17528;SDS011;8882;53.192;8.184;2023-09-07T06:46:37;8.80;;;5.83;;
17528;SDS011;8882;53.192;8.184;2023-09-07T06:49:03;10.27;;;5.13;;
17528;SDS011;8882;53.192;8.184;2023-09-07T06:51:30;7.73;;;4.90;;
17528;SDS011;8882;53.192;8.184;2023-09-07T06:53:56;7.43;;;5.10;;
17528;SDS011;8882;53.192;8.184;2023-09-07T06:56:21;7.67;;;5.50;;
17528;SDS011;8882;53.192;8.184;2023-09-07T06:58:47;7.63;;;5.40;;
17528;SDS011;8882;53.192;8.184;2023-09-07T07:01:13;6.27;;;5.10;;
17528;SDS011;8882;53.192;8.184;2023-09-07T07:03:38;8.90;;;5.20;;
17528;SDS011;8882;53.192;8.184;2023-09-07T07:06:04;8.23;;;5.37;;
17528;SDS011;8882;53.192;8.184;2023-09-07T07:08:29;8.07;;;5.37;;
17528;SDS011;8882;53.192;8.184;2023-09-07T07:10:55;7.23;;;5.20;;
17528;SDS011;8882;53.192;8.184;2023-09-07T07:13:20;8.33;;;5.00;;
17528;SDS011;8882;53.192;8.184;2023-09-07T07:15:46;6.15;;;4.90;;
17528;SDS011;8882;53.192;8.184;2023-09-07T07:18:11;8.43;;;4.97;;
17528;SDS011;8882;53.192;8.184;2023-09-07T07:20:37;5.70;;;4.70;;
17528;SDS011;8882;53.192;8.184;2023-09-07T07:23:04;7.32;;;5.32;;
17528;SDS011;8882;53.192;8.184;2023-09-07T07:25:31;7.10;;;5.30;;
17528;SDS011;8882;53.192;8.184;2023-09-07T07:27:58;6.80;;;5.47;;
17528;SDS011;8882;53.192;8.184;2023-09-07T07:30:26;8.75;;;4.90;;
17528;SDS011;8882;53.192;8.184;2023-09-07T07:32:54;8.73;;;4.97;;
17528;SDS011;8882;53.192;8.184;2023-09-07T07:35:19;7.57;;;4.80;;
17528;SDS011;8882;53.192;8.184;2023-09-07T07:37:45;5.70;;;4.80;;
17528;SDS011;8882;53.192;8.184;2023-09-07T07:40:10;6.38;;;5.07;;
17528;SDS011;8882;53.192;8.184;2023-09-07T07:42:36;5.43;;;4.80;;
17528;SDS011;8882;53.192;8.184;2023-09-07T07:45:01;6.38;;;5.20;;
17528;SDS011;8882;53.192;8.184;2023-09-07T07:47:27;5.78;;;4.32;;
17528;SDS011;8882;53.192;8.184;2023-09-07T07:49:53;5.82;;;5.20;;
17528;SDS011;8882;53.192;8.184;2023-09-07T07:52:18;6.90;;;5.07;;
17528;SDS011;8882;53.192;8.184;2023-09-07T07:54:44;6.55;;;4.78;;
17528;SDS011;8882;53.192;8.184;2023-09-07T07:57:09;6.97;;;4.60;;
17528;SDS011;8882;53.192;8.184;2023-09-07T07:59:35;8.45;;;4.88;;
17528;SDS011;8882;53.192;8.184;2023-09-07T08:02:01;6.63;;;4.78;;
17528;SDS011;8882;53.192;8.184;2023-09-07T08:04:27;5.28;;;4.70;;
17528;SDS011;8882;53.192;8.184;2023-09-07T08:06:53;5.90;;;4.63;;
17528;SDS011;8882;53.192;8.184;2023-09-07T08:09:23;8.40;;;4.88;;
17528;SDS011;8882;53.192;8.184;2023-09-07T08:11:48;4.63;;;4.22;;
17528;SDS011;8882;53.192;8.184;2023-09-07T08:14:14;7.75;;;5.10;;
17528;SDS011;8882;53.192;8.184;2023-09-07T08:16:39;6.30;;;4.57;;
17528;SDS011;8882;53.192;8.184;2023-09-07T08:19:05;7.25;;;4.78;;
17528;SDS011;8882;53.192;8.184;2023-09-07T08:21:30;11.10;;;5.10;;
17528;SDS011;8882;53.192;8.184;2023-09-07T08:23:56;5.93;;;4.18;;
17528;SDS011;8882;53.192;8.184;2023-09-07T08:26:21;7.05;;;5.07;;
17528;SDS011;8882;53.192;8.184;2023-09-07T08:28:47;6.30;;;4.40;;
17528;SDS011;8882;53.192;8.184;2023-09-07T08:31:12;6.88;;;4.50;;
17528;SDS011;8882;53.192;8.184;2023-09-07T08:33:45;6.68;;;4.47;;
17528;SDS011;8882;53.192;8.184;2023-09-07T08:36:11;6.88;;;4.43;;
17528;SDS011;8882;53.192;8.184;2023-09-07T08:38:37;6.78;;;4.57;;
17528;SDS011;8882;53.192;8.184;2023-09-07T08:41:02;8.63;;;4.57;;
17528;SDS011;8882;53.192;8.184;2023-09-07T08:43:30;4.90;;;4.13;;
17528;SDS011;8882;53.192;8.184;2023-09-07T08:46:09;6.80;;;4.32;;
17528;SDS011;8882;53.192;8.184;2023-09-07T08:48:43;7.90;;;4.10;;
17528;SDS011;8882;53.192;8.184;2023-09-07T08:51:09;7.05;;;4.20;;
17528;SDS011;8882;53.192;8.184;2023-09-07T08:53:37;6.43;;;4.80;;
17528;SDS011;8882;53.192;8.184;2023-09-07T08:56:03;6.45;;;4.25;;
17528;SDS011;8882;53.192;8.184;2023-09-07T08:58:30;6.85;;;4.03;;
17528;SDS011;8882;53.192;8.184;2023-09-07T09:00:57;6.10;;;4.07;;
17528;SDS011;8882;53.192;8.184;2023-09-07T09:03:22;5.88;;;4.30;;
17528;SDS011;8882;53.192;8.184;2023-09-07T09:05:48;6.20;;;4.15;;
17528;SDS011;8882;53.192;8.184;2023-09-07T09:08:16;7.80;;;4.40;;
17528;SDS011;8882;53.192;8.184;2023-09-07T09:10:45;5.53;;;4.07;;
17528;SDS011;8882;53.192;8.184;2023-09-07T09:13:10;6.07;;;4.55;;
17528;SDS011;8882;53.192;8.184;2023-09-07T09:15:36;4.50;;;4.10;;
17528;SDS011;8882;53.192;8.184;2023-09-07T09:18:12;6.38;;;4.28;;
17528;SDS011;8882;53.192;8.184;2023-09-07T09:20:38;5.47;;;4.25;;
17528;SDS011;8882;53.192;8.184;2023-09-07T09:23:04;4.68;;;3.95;;
17528;SDS011;8882;53.192;8.184;2023-09-07T09:25:30;9.23;;;4.07;;
17528;SDS011;8882;53.192;8.184;2023-09-07T09:27:56;6.45;;;4.30;;
17528;SDS011;8882;53.192;8.184;2023-09-07T09:30:22;4.22;;;3.83;;
17528;SDS011;8882;53.192;8.184;2023-09-07T09:32:48;7.35;;;4.32;;
17528;SDS011;8882;53.192;8.184;2023-09-07T09:35:16;6.82;;;4.50;;
17528;SDS011;8882;53.192;8.184;2023-09-07T09:37:43;7.03;;;4.45;;
17528;SDS011;8882;53.192;8.184;2023-09-07T09:40:10;5.13;;;4.63;;
17528;SDS011;8882;53.192;8.184;2023-09-07T09:42:40;5.90;;;4.78;;
17528;SDS011;8882;53.192;8.184;2023-09-07T09:45:07;6.90;;;3.70;;
17528;SDS011;8882;53.192;8.184;2023-09-07T09:47:35;6.25;;;4.13;;
17528;SDS011;8882;53.192;8.184;2023-09-07T09:50:04;7.82;;;4.57;;
17528;SDS011;8882;53.192;8.184;2023-09-07T09:52:33;9.45;;;4.20;;
17528;SDS011;8882;53.192;8.184;2023-09-07T09:55:01;5.32;;;4.05;;
17528;SDS011;8882;53.192;8.184;2023-09-07T09:57:30;4.97;;;4.35;;
17528;SDS011;8882;53.192;8.184;2023-09-07T09:59:56;10.50;;;4.72;;
17528;SDS011;8882;53.192;8.184;2023-09-07T10:02:24;6.47;;;4.28;;
17528;SDS011;8882;53.192;8.184;2023-09-07T10:04:51;6.10;;;4.28;;
17528;SDS011;8882;53.192;8.184;2023-09-07T10:07:18;7.53;;;3.97;;
17528;SDS011;8882;53.192;8.184;2023-09-07T10:09:44;5.78;;;3.90;;
17528;SDS011;8882;53.192;8.184;2023-09-07T10:12:12;7.53;;;4.03;;
17528;SDS011;8882;53.192;8.184;2023-09-07T10:14:38;4.35;;;3.72;;
17528;SDS011;8882;53.192;8.184;2023-09-07T10:17:05;9.40;;;4.82;;
17528;SDS011;8882;53.192;8.184;2023-09-07T10:19:31;8.13;;;4.53;;
17528;SDS011;8882;53.192;8.184;2023-09-07T10:21:56;8.05;;;4.60;;
17528;SDS011;8882;53.192;8.184;2023-09-07T10:27:05;7.57;;;3.97;;
17528;SDS011;8882;53.192;8.184;2023-09-07T10:29:41;4.80;;;4.13;;
17528;SDS011;8882;53.192;8.184;2023-09-07T10:32:08;6.13;;;4.55;;
17528;SDS011;8882;53.192;8.184;2023-09-07T10:34:37;7.07;;;4.13;;
17528;SDS011;8882;53.192;8.184;2023-09-07T10:37:04;9.00;;;4.00;;
17528;SDS011;8882;53.192;8.184;2023-09-07T10:39:31;4.20;;;3.83;;
17528;SDS011;8882;53.192;8.184;2023-09-07T10:41:57;5.30;;;4.35;;
17528;SDS011;8882;53.192;8.184;2023-09-07T10:44:26;5.75;;;4.05;;
17528;SDS011;8882;53.192;8.184;2023-09-07T10:46:52;4.30;;;3.90;;
17528;SDS011;8882;53.192;8.184;2023-09-07T10:49:19;4.47;;;4.07;;
17528;SDS011;8882;53.192;8.184;2023-09-07T10:51:45;4.55;;;4.15;;
17528;SDS011;8882;53.192;8.184;2023-09-07T10:54:15;5.63;;;3.83;;
17528;SDS011;8882;53.192;8.184;2023-09-07T10:56:48;4.97;;;4.18;;
17528;SDS011;8882;53.192;8.184;2023-09-07T10:59:15;3.85;;;3.47;;
17528;SDS011;8882;53.192;8.184;2023-09-07T11:01:43;3.42;;;3.03;;
17528;SDS011;8882;53.192;8.184;2023-09-07T11:04:09;4.32;;;3.53;;
17528;SDS011;8882;53.192;8.184;2023-09-07T11:06:36;5.32;;;3.95;;
17528;SDS011;8882;53.192;8.184;2023-09-07T11:09:02;6.38;;;3.53;;
17528;SDS011;8882;53.192;8.184;2023-09-07T11:11:34;3.90;;;3.45;;
17528;SDS011;8882;53.192;8.184;2023-09-07T11:14:01;4.20;;;3.65;;
17528;SDS011;8882;53.192;8.184;2023-09-07T11:16:30;6.18;;;3.80;;
17528;SDS011;8882;53.192;8.184;2023-09-07T11:18:57;5.63;;;3.72;;
17528;SDS011;8882;53.192;8.184;2023-09-07T11:21:29;6.95;;;3.70;;
17528;SDS011;8882;53.192;8.184;2023-09-07T11:23:56;6.72;;;3.78;;
17528;SDS011;8882;53.192;8.184;2023-09-07T11:26:22;4.15;;;3.58;;
17528;SDS011;8882;53.192;8.184;2023-09-07T11:28:48;5.72;;;3.92;;
17528;SDS011;8882;53.192;8.184;2023-09-07T11:31:13;4.80;;;3.95;;
17528;SDS011;8882;53.192;8.184;2023-09-07T11:33:43;5.45;;;3.63;;
17528;SDS011;8882;53.192;8.184;2023-09-07T11:36:09;10.45;;;3.97;;
17528;SDS011;8882;53.192;8.184;2023-09-07T11:38:35;5.32;;;3.60;;
17528;SDS011;8882;53.192;8.184;2023-09-07T11:41:02;6.45;;;4.15;;
17528;SDS011;8882;53.192;8.184;2023-09-07T11:43:28;4.70;;;3.50;;
17528;SDS011;8882;53.192;8.184;2023-09-07T11:45:54;3.97;;;3.60;;
17528;SDS011;8882;53.192;8.184;2023-09-07T11:48:19;5.32;;;3.80;;
17528;SDS011;8882;53.192;8.184;2023-09-07T11:50:45;4.95;;;3.95;;
17528;SDS011;8882;53.192;8.184;2023-09-07T11:53:10;4.55;;;3.60;;
17528;SDS011;8882;53.192;8.184;2023-09-07T11:55:36;4.70;;;3.63;;
17528;SDS011;8882;53.192;8.184;2023-09-07T11:58:03;8.68;;;3.70;;
17528;SDS011;8882;53.192;8.184;2023-09-07T12:00:32;3.55;;;3.20;;
17528;SDS011;8882;53.192;8.184;2023-09-07T12:02:57;5.25;;;3.03;;
17528;SDS011;8882;53.192;8.184;2023-09-07T12:05:23;3.78;;;3.20;;
17528;SDS011;8882;53.192;8.184;2023-09-07T12:07:49;5.13;;;3.53;;
17528;SDS011;8882;53.192;8.184;2023-09-07T12:10:14;3.85;;;3.50;;
17528;SDS011;8882;53.192;8.184;2023-09-07T12:12:40;4.25;;;3.10;;
17528;SDS011;8882;53.192;8.184;2023-09-07T12:15:07;5.88;;;3.50;;
17528;SDS011;8882;53.192;8.184;2023-09-07T12:17:33;4.78;;;3.45;;
17528;SDS011;8882;53.192;8.184;2023-09-07T12:19:59;3.88;;;3.20;;
17528;SDS011;8882;53.192;8.184;2023-09-07T12:22:25;4.82;;;3.40;;
17528;SDS011;8882;53.192;8.184;2023-09-07T12:24:51;4.80;;;2.70;;
17528;SDS011;8882;53.192;8.184;2023-09-07T12:27:17;6.32;;;3.20;;
17528;SDS011;8882;53.192;8.184;2023-09-07T12:29:43;3.85;;;3.00;;
17528;SDS011;8882;53.192;8.184;2023-09-07T12:32:09;4.43;;;2.55;;
17528;SDS011;8882;53.192;8.184;2023-09-07T12:34:35;3.75;;;3.10;;
17528;SDS011;8882;53.192;8.184;2023-09-07T12:37:01;4.45;;;2.85;;
17528;SDS011;8882;53.192;8.184;2023-09-07T12:39:29;3.03;;;2.78;;
17528;SDS011;8882;53.192;8.184;2023-09-07T12:41:55;3.95;;;2.95;;
17528;SDS011;8882;53.192;8.184;2023-09-07T12:44:20;3.15;;;2.60;;
17528;SDS011;8882;53.192;8.184;2023-09-07T12:46:46;3.25;;;2.92;;
17528;SDS011;8882;53.192;8.184;2023-09-07T12:49:11;3.75;;;2.63;;
17528;SDS011;8882;53.192;8.184;2023-09-07T12:51:37;4.03;;;2.75;;
17528;SDS011;8882;53.192;8.184;2023-09-07T12:54:02;5.80;;;2.75;;
17528;SDS011;8882;53.192;8.184;2023-09-07T12:56:28;3.50;;;2.88;;
17528;SDS011;8882;53.192;8.184;2023-09-07T12:58:53;5.65;;;2.88;;
17528;SDS011;8882;53.192;8.184;2023-09-07T13:01:22;2.90;;;2.65;;
17528;SDS011;8882;53.192;8.184;2023-09-07T13:03:47;3.65;;;2.40;;
17528;SDS011;8882;53.192;8.184;2023-09-07T13:06:13;4.00;;;2.45;;
17528;SDS011;8882;53.192;8.184;2023-09-07T13:08:38;3.03;;;2.72;;
17528;SDS011;8882;53.192;8.184;2023-09-07T13:11:04;4.80;;;3.03;;
17528;SDS011;8882;53.192;8.184;2023-09-07T13:13:29;4.47;;;2.80;;
17528;SDS011;8882;53.192;8.184;2023-09-07T13:15:55;2.78;;;2.47;;
17528;SDS011;8882;53.192;8.184;2023-09-07T13:18:21;5.72;;;2.63;;
17528;SDS011;8882;53.192;8.184;2023-09-07T13:20:47;2.30;;;2.10;;
17528;SDS011;8882;53.192;8.184;2023-09-07T13:23:15;2.88;;;2.60;;
17528;SDS011;8882;53.192;8.184;2023-09-07T13:25:41;2.13;;;1.92;;
17528;SDS011;8882;53.192;8.184;2023-09-07T13:28:06;2.92;;;2.30;;
17528;SDS011;8882;53.192;8.184;2023-09-07T13:30:32;3.90;;;2.25;;
17528;SDS011;8882;53.192;8.184;2023-09-07T13:32:57;5.43;;;2.50;;
17528;SDS011;8882;53.192;8.184;2023-09-07T13:35:25;3.03;;;2.40;;
17528;SDS011;8882;53.192;8.184;2023-09-07T13:37:51;2.60;;;2.40;;
17528;SDS011;8882;53.192;8.184;2023-09-07T13:40:17;3.53;;;2.30;;
17528;SDS011;8882;53.192;8.184;2023-09-07T13:42:44;3.35;;;2.65;;
17528;SDS011;8882;53.192;8.184;2023-09-07T13:45:10;3.97;;;2.63;;
17528;SDS011;8882;53.192;8.184;2023-09-07T13:47:35;7.25;;;2.75;;
17528;SDS011;8882;53.192;8.184;2023-09-07T13:50:01;5.88;;;2.63;;
17528;SDS011;8882;53.192;8.184;2023-09-07T13:52:27;4.40;;;2.50;;
17528;SDS011;8882;53.192;8.184;2023-09-07T13:54:53;3.88;;;2.55;;
17528;SDS011;8882;53.192;8.184;2023-09-07T13:57:18;6.40;;;3.22;;
17528;SDS011;8882;53.192;8.184;2023-09-07T13:59:44;3.97;;;2.58;;
17528;SDS011;8882;53.192;8.184;2023-09-07T14:02:09;4.85;;;2.55;;
17528;SDS011;8882;53.192;8.184;2023-09-07T14:04:35;4.63;;;2.85;;
17528;SDS011;8882;53.192;8.184;2023-09-07T14:07:00;5.07;;;2.75;;
17528;SDS011;8882;53.192;8.184;2023-09-07T14:09:26;9.32;;;3.33;;
17528;SDS011;8882;53.192;8.184;2023-09-07T14:11:51;4.70;;;3.33;;
17528;SDS011;8882;53.192;8.184;2023-09-07T14:14:17;4.00;;;2.83;;
17528;SDS011;8882;53.192;8.184;2023-09-07T14:16:43;5.03;;;3.15;;
17528;SDS011;8882;53.192;8.184;2023-09-07T14:19:08;5.53;;;2.92;;
17528;SDS011;8882;53.192;8.184;2023-09-07T14:21:33;2.80;;;2.60;;
17528;SDS011;8882;53.192;8.184;2023-09-07T14:23:59;3.10;;;2.65;;
17528;SDS011;8882;53.192;8.184;2023-09-07T14:26:26;3.95;;;2.83;;
17528;SDS011;8882;53.192;8.184;2023-09-07T14:28:52;7.80;;;3.03;;
17528;SDS011;8882;53.192;8.184;2023-09-07T14:31:18;3.17;;;2.88;;
17528;SDS011;8882;53.192;8.184;2023-09-07T14:33:44;4.05;;;2.70;;
17528;SDS011;8882;53.192;8.184;2023-09-07T14:36:09;6.32;;;3.03;;
17528;SDS011;8882;53.192;8.184;2023-09-07T14:38:35;2.95;;;2.72;;
17528;SDS011;8882;53.192;8.184;2023-09-07T14:41:06;5.07;;;2.80;;
17528;SDS011;8882;53.192;8.184;2023-09-07T14:43:33;4.15;;;3.08;;
17528;SDS011;8882;53.192;8.184;2023-09-07T14:45:58;5.90;;;2.78;;
17528;SDS011;8882;53.192;8.184;2023-09-07T14:48:24;4.90;;;3.33;;
17528;SDS011;8882;53.192;8.184;2023-09-07T14:50:50;4.65;;;2.80;;
17528;SDS011;8882;53.192;8.184;2023-09-07T14:53:15;4.10;;;3.13;;
17528;SDS011;8882;53.192;8.184;2023-09-07T14:55:41;5.60;;;2.90;;
17528;SDS011;8882;53.192;8.184;2023-09-07T14:58:06;3.28;;;2.97;;